Friday, January 19, 2018, 7:41 AM GMT
Back to Local

CYHZ, Halifax International Airport

Location: , , Canada Lat: 44.883
Local Time: 7:41 AM GMT ( 7:41 GMT) Lon: -63.5
Time Zone: GMT Elev: 475 ft

Show me the last for .
Show Coded

Time T Td Feel RH Dir Speed Gust Alt SLP Vis Weather Sky Remarks
2018-01-19 07:00 16 14 6 92 350° 7 - 29.73 29.76 15 CLR None
2018-01-19 06:00 16 16 6 100 340° 7 - 29.73 29.76 15 FEW260 None
2018-01-19 05:00 18 18 9 100 360° 6 - 29.73 29.76 15 SCT017 None
2018-01-19 04:00 21 19 8 92 360° 14 - 29.71 29.74 15 BKN016 Pressure falling rapidly
2018-01-19 03:00 21 19 8 92 360° 14 - 29.75 29.77 15 BKN022 None
2018-01-19 02:00 23 23 9 100 360° 13 18 29.76 29.78 15 BKN022 None
2018-01-19 01:00 25 23 15 92 340° 9 - 29.75 29.77 15 BKN021 None
2018-01-19 00:00 27 23 16 86 320° 12 - 29.74 29.77 15 BKN018 None
2018-01-18 23:00 28 27 21 92 330° 7 - 29.73 29.75 15 BKN015 None
2018-01-18 22:00 28 27 15 92 330° 14 21 29.71 29.73 14 OVC015 None
2018-01-18 21:00 32 30 24 92 310° 10 - 29.71 29.74 15 BKN013 None
2018-01-18 20:31 32 30 26 92 260° 6 - 29.72 29.74 15 BKN021 Pressure falling rapidly
2018-01-18 20:00 32 30 26 92 290° 7 - 29.73 29.75 12 -SHSN OVC017 None
2018-01-18 19:56 32 30 26 92 310° 6 - 29.73 29.76 12 -SHSN OVC017 None
2018-01-18 19:00 30 30 24 100 320° 6 - 29.73 29.75 15 SCT009 OVC240 None
2018-01-18 18:00 30 30 22 100 300° 9 - 29.75 29.77 15 OVC007 None
2018-01-18 17:00 30 30 23 100 270° 8 - 29.77 29.79 15 OVC007 None
2018-01-18 16:00 30 28 24 92 310° 6 - 29.78 29.81 15 BKN005 Pressure falling rapidly
2018-01-18 15:00 30 28 22 92 310° 9 - 29.81 29.84 15 BKN005 BKN250 None
2018-01-18 14:00 28 28 21 100 300° 7 - 29.82 29.84 15 FEW003 SCT022 BKN220 None
2018-01-18 13:10 27 27 18 100 290° 8 - 29.82 29.85 15 SCT002 BKN019 None
2018-01-18 13:00 27 27 17 100 290° 9 - 29.82 29.85 15 BKN002 BKN022 None
2018-01-18 12:53 27 27 17 100 290° 10 - 29.82 29.85 15 SCT002 BKN004 BKN022 None
2018-01-18 12:37 27 27 20 100 290° 6 - 29.82 29.85 15 BKN005 BKN022 BKN250 Pressure rising rapidly
2018-01-18 12:00 27 27 20 100 310° 6 - 29.81 29.84 15 BKN021 None
2018-01-18 11:00 27 27 16 100 340° 12 - 29.79 29.81 10 SCT004 BKN016 None
2018-01-18 10:44 28 28 18 100 330° 13 - 29.78 29.81 10 SCT004 OVC012 None
2018-01-18 10:00 28 28 15 100 330° 15 21 29.78 29.80 6 -FZDZ BR OVC003 None
2018-01-18 09:34 28 28 16 100 320° 18 - 29.79 29.81 3 -FZDZ BR OVC003 None
2018-01-18 09:21 30 30 17 100 330° 16 23 29.78 29.81 1 -FZDZ BR VV003 None
2018-01-18 09:00 30 30 18 100 330° 13 20 29.79 29.81 0 -FZDZ FZFG VV002 None
2018-01-18 08:38 30 30 22 100 340° 9 - 29.78 29.81 0 -FZDZ FZFG VV002 Wind Shift: 05 min
2018-01-18 08:20 28 28 18 100 330° 13 - 29.78 29.81 2 -FZDZ BR OVC003 None
2018-01-18 08:07 30 30 23 100 10° 8 - 29.77 29.80 6 BR SCT003 BKN016 OVC030 None
2018-01-18 08:00 30 30 21 100 10° 10 - 29.78 29.80 2 -FZDZ BR BKN003 OVC020 None

Support USWX by starting your Amazon purchase here.